Rechercher aéroport 
image banner adimage banner adimage banner ad
image banner ad

0CA9 - Blech Ranch

Situé à Shandon, United States

ICAO - 0CA9, IATA -

Données fournies par Airmate  

Information générale

Coordonnées: N35°35'42" W120°20'20"
Élévation : 1140 feet MSL.
Variation magnétique : 15° East
Voir autres Aéroports à California

Données opérationnelles

Special qualification required
Heure actuelle UTC:
Heure actuelle locale:
Météo à : KPRB - Paso Robles Muni ( 27 km )
METAR: KPRB 251553Z AUTO 00000KT 10SM CLR 19/11 A2998 RMK AO2 SLP146 T01940106
TAF: KPRB 251158Z 2512/2612 VRB03KT P6SM SCT150 FM252000 21015KT P6SM BKN150 FM252300 21019G26KT P6SM BKN150 FM260300 20012KT P6SM BKN150 FM260700 VRB03KT P6SM BKN150
Voir NOTAMs / SUP AIP / TFR affectant cet aéroport [VIEW]
Fréquences de communication: [VIEW]

Pistes:

Identifiant RWYQFULongueur (ft)Largeur (ft)SurfaceLDA (ft)
16330060ASPH
34330060ASPH

Coordonnées de l'aéroport

Adresse: Shandon United States

Vue satellite de 0CA9